Time;durP1;ratioP1;P1;durP2;ratioP2;P2;SDS_P1;SDS_P2;PMS_P1;PMS_P2;Temp;Humidity;BMP_temperature;BMP_pressure;BME280_temperature;BME280_humidity;BME280_pressure;Samples;Min_cycle;Max_cycle;Signal;HPM_P1;HPM_P2
2023/09/02 00:01:47;;;;;;;13.85;11.18;;;;;;;22.40;50.70;95623.94;5035532;28;20038;-80
2023/09/02 00:04:13;;;;;;;14.00;12.50;;;;;;;22.44;51.06;95635.63;5035495;28;20112;-79
2023/09/02 00:06:38;;;;;;;15.82;12.18;;;;;;;22.00;51.65;95604.88;5035459;28;20030;-79
2023/09/02 00:09:04;;;;;;;16.85;11.77;;;;;;;22.19;51.49;95621.34;5035621;28;20088;-79
2023/09/02 00:11:30;;;;;;;16.48;12.25;;;;;;;22.17;51.85;95632.47;5017726;28;20137;-79
2023/09/02 00:13:55;;;;;;;14.65;12.30;;;;;;;22.05;51.62;95601.97;5035421;28;20036;-79
2023/09/02 00:16:20;;;;;;;14.48;11.45;;;;;;;21.89;51.71;95588.31;5017250;28;20681;-79
2023/09/02 00:18:46;;;;;;;16.30;12.23;;;;;;;22.08;52.08;95639.88;5017296;28;20042;-80
2023/09/02 00:21:12;;;;;;;13.65;11.93;;;;;;;22.14;51.90;95633.16;5017332;28;20037;-80
2023/09/02 00:23:45;;;;;;;13.45;11.05;;;;;;;22.12;52.10;95645.44;5017620;28;20037;-79
2023/09/02 00:26:11;;;;;;;15.20;11.82;;;;;;;21.71;52.64;95581.50;5016885;28;20647;-79
2023/09/02 00:28:36;;;;;;;18.00;11.65;;;;;;;21.99;52.80;95636.50;5035105;28;20460;-79
2023/09/02 00:31:02;;;;;;;12.90;11.50;;;;;;;21.94;52.72;95620.47;5017202;28;20037;-79
2023/09/02 00:33:27;;;;;;;15.68;10.88;;;;;;;21.97;52.20;95619.81;5017212;28;20058;-80
2023/09/02 00:35:53;;;;;;;14.95;12.55;;;;;;;21.86;52.27;95621.38;5016719;28;20038;-80
2023/09/02 00:38:18;;;;;;;15.35;11.68;;;;;;;21.71;52.74;95608.50;5034860;28;20550;-79
2023/09/02 00:40:57;;;;;;;14.57;11.43;;;;;;;21.75;53.22;95628.28;5017386;28;20496;-84
2023/09/02 00:43:23;;;;;;;12.57;11.13;;;;;;;21.36;53.12;95573.75;5017294;28;20034;-85
2023/09/02 00:45:48;;;;;;;14.40;11.15;;;;;;;21.72;53.04;95628.97;5035277;28;20060;-85
2023/09/02 00:48:14;;;;;;;14.10;12.23;;;;;;;21.88;53.13;95659.63;5017222;28;20036;-86
2023/09/02 00:50:39;;;;;;;15.32;11.55;;;;;;;21.45;53.18;95611.44;5017934;28;20106;-85
2023/09/02 00:53:05;;;;;;;17.38;12.70;;;;;;;21.58;53.43;95642.78;5036808;28;20051;-85
2023/09/02 00:55:30;;;;;;;15.23;10.70;;;;;;;21.44;53.60;95620.66;5017860;28;20033;-86
2023/09/02 00:57:58;;;;;;;13.07;11.57;;;;;;;21.47;54.12;95645.09;5036329;28;20037;-87
2023/09/02 01:00:23;;;;;;;14.02;12.52;;;;;;;21.14;54.41;95590.25;5036521;28;20080;-85
2023/09/02 01:02:50;;;;;;;13.27;11.88;;;;;;;21.45;54.80;95657.31;5017777;28;20479;-85
2023/09/02 01:05:16;;;;;;;13.65;11.68;;;;;;;21.27;55.44;95662.09;5018341;28;20044;-86
2023/09/02 01:07:43;;;;;;;15.30;12.07;;;;;;;21.11;55.51;95639.47;5018208;28;20033;-85
2023/09/02 01:10:08;;;;;;;14.32;12.48;;;;;;;20.97;55.64;95612.00;5017029;28;20033;-86
2023/09/02 01:12:35;;;;;;;18.27;13.00;;;;;;;21.10;55.95;95651.38;5036257;28;20036;-85
2023/09/02 01:15:00;;;;;;;14.82;12.55;;;;;;;20.85;56.07;95614.59;5036386;28;20112;-86
2023/09/02 01:17:26;;;;;;;17.33;13.25;;;;;;;21.02;55.89;95641.44;5018108;28;20067;-86
2023/09/02 01:19:56;;;;;;;13.10;11.75;;;;;;;21.20;55.73;95652.94;5017498;28;20060;-86
2023/09/02 01:22:40;;;;;;;16.80;13.52;;;;;;;21.18;55.84;95656.75;5017698;28;20029;-86
2023/09/02 01:25:13;;;;;;;14.55;12.63;;;;;;;21.09;55.83;95629.03;5035951;28;20033;-86
2023/09/02 01:27:53;;;;;;;16.77;12.80;;;;;;;20.86;55.73;95600.00;5017782;28;20056;-85
2023/09/02 01:30:22;;;;;;;20.33;13.02;;;;;;;20.67;56.55;95619.34;5035126;28;20400;-85
2023/09/02 01:32:52;;;;;;;15.43;12.43;;;;;;;20.80;56.85;95658.72;5017959;28;20025;-85
2023/09/02 01:35:29;;;;;;;14.20;12.48;;;;;;;20.77;56.59;95643.19;5017939;28;20064;-86
2023/09/02 01:37:57;;;;;;;14.32;12.02;;;;;;;20.57;57.15;95628.56;5018002;28;20038;-85
2023/09/02 01:40:25;;;;;;;15.18;12.48;;;;;;;20.75;57.40;95662.38;5017751;28;20531;-86
2023/09/02 01:42:51;;;;;;;14.38;12.73;;;;;;;20.74;56.99;95651.94;5017506;28;20029;-86
2023/09/02 01:45:20;;;;;;;15.18;13.50;;;;;;;20.46;57.05;95613.09;5035024;28;20512;-86
2023/09/02 01:47:47;;;;;;;15.85;12.80;;;;;;;20.83;57.13;95659.97;5017855;28;20116;-86
2023/09/02 01:50:15;;;;;;;18.08;13.07;;;;;;;20.74;57.23;95666.22;5016927;28;20048;-85
2023/09/02 01:52:42;;;;;;;15.63;12.43;;;;;;;20.75;57.25;95661.63;5016380;28;20404;-85
2023/09/02 01:55:08;;;;;;;21.52;13.35;;;;;;;20.66;57.02;95637.41;5034403;28;20086;-85
2023/09/02 01:57:34;;;;;;;16.33;13.32;;;;;;;20.51;57.02;95616.41;5034792;28;20116;-85
2023/09/02 01:59:59;;;;;;;18.20;13.13;;;;;;;20.62;57.04;95631.06;5034815;28;20037;-86
2023/09/02 02:02:25;;;;;;;17.42;12.52;;;;;;;20.87;56.99;95664.38;5017748;28;20459;-86
2023/09/02 02:04:55;;;;;;;16.88;13.40;;;;;;;20.67;57.00;95643.59;5017408;28;20124;-86
2023/09/02 02:07:26;;;;;;;17.92;13.60;;;;;;;20.89;56.79;95672.16;5017335;28;20067;-86
2023/09/02 02:09:56;;;;;;;17.10;13.27;;;;;;;20.94;56.67;95670.06;5017582;28;20037;-86
2023/09/02 02:12:22;;;;;;;16.65;11.98;;;;;;;20.92;56.33;95658.00;5017787;28;20511;-86
2023/09/02 02:14:48;;;;;;;18.55;13.32;;;;;;;20.55;56.71;95648.88;5017418;28;20033;-86
2023/09/02 02:17:14;;;;;;;16.13;13.55;;;;;;;20.49;56.36;95623.22;5035012;28;20052;-86
2023/09/02 02:19:40;;;;;;;18.75;13.35;;;;;;;20.83;56.58;95668.06;5016782;28;20075;-86
2023/09/02 02:22:06;;;;;;;19.92;13.40;;;;;;;20.75;56.70;95661.63;5016795;28;20071;-87
2023/09/02 02:24:31;;;;;;;16.73;14.07;;;;;;;20.89;56.31;95672.16;5034484;28;20565;-86
2023/09/02 02:26:57;;;;;;;17.05;12.63;;;;;;;20.89;56.58;95675.63;5016424;28;20033;-85
2023/09/02 02:29:22;;;;;;;17.85;12.48;;;;;;;20.73;56.82;95669.22;5016952;28;20037;-87
2023/09/02 02:31:48;;;;;;;17.45;13.98;;;;;;;20.74;56.93;95676.22;5034968;28;20040;-87
2023/09/02 02:34:14;;;;;;;16.23;12.85;;;;;;;20.67;57.28;95671.31;5017279;28;20037;-86
2023/09/02 02:36:40;;;;;;;19.05;13.40;;;;;;;20.62;57.53;95673.41;5016817;28;20125;-86
2023/09/02 02:39:05;;;;;;;17.25;13.27;;;;;;;20.45;58.09;95676.97;5016629;28;20033;-86
2023/09/02 02:41:31;;;;;;;18.65;13.10;;;;;;;20.26;58.65;95668.47;5034387;28;20095;-86
2023/09/02 02:43:58;;;;;;;19.33;13.80;;;;;;;19.89;58.58;95600.03;5017260;28;20037;-86
2023/09/02 02:46:24;;;;;;;18.17;13.27;;;;;;;20.38;58.39;95666.69;5016517;28;20041;-86
2023/09/02 02:48:49;;;;;;;19.45;14.55;;;;;;;20.23;58.09;95637.56;5034765;28;20048;-86
2023/09/02 02:51:15;;;;;;;18.52;13.70;;;;;;;20.26;57.93;95625.38;5016312;28;20030;-86
2023/09/02 02:53:40;;;;;;;17.17;14.07;;;;;;;20.33;57.88;95650.72;5016168;28;20029;-86
2023/09/02 02:56:06;;;;;;;16.10;13.65;;;;;;;20.03;57.71;95606.78;5017039;28;20195;-86
2023/09/02 02:58:32;;;;;;;20.23;13.68;;;;;;;19.97;58.23;95618.84;5017108;28;20041;-86
2023/09/02 03:01:11;;;;;;;22.45;14.75;;;;;;;20.39;57.94;95675.56;5033913;28;20124;-85
2023/09/02 03:03:37;;;;;;;19.38;14.45;;;;;;;20.12;57.59;95649.81;5015729;28;20056;-85
2023/09/02 03:06:05;;;;;;;21.98;13.75;;;;;;;20.26;57.47;95684.63;5014637;28;20033;-85
2023/09/02 03:08:33;;;;;;;18.17;14.05;;;;;;;20.15;57.71;95672.59;5015147;28;20041;-86
2023/09/02 03:11:05;;;;;;;18.25;14.63;;;;;;;20.07;58.01;95679.59;5014463;28;20049;-79
2023/09/02 03:13:33;;;;;;;20.88;14.57;;;;;;;19.98;58.22;95662.69;5032432;28;20456;-79
2023/09/02 03:16:00;;;;;;;20.08;14.65;;;;;;;20.11;58.11;95688.63;5015125;28;20080;-79
2023/09/02 03:18:26;;;;;;;21.58;14.45;;;;;;;19.68;57.68;95613.38;5032401;28;20088;-79
2023/09/02 03:20:51;;;;;;;18.77;14.60;;;;;;;20.00;57.89;95674.72;5032623;28;20689;-80
2023/09/02 03:23:18;;;;;;;20.13;14.40;;;;;;;20.04;57.89;95678.34;5015177;28;20480;-79
2023/09/02 03:25:43;;;;;;;19.73;14.85;;;;;;;20.02;58.33;95682.47;5014503;28;20034;-79
2023/09/02 03:28:09;;;;;;;20.85;15.07;;;;;;;19.99;58.58;95688.47;5014381;28;20048;-79
2023/09/02 03:30:34;;;;;;;18.23;14.38;;;;;;;19.85;58.83;95679.81;5032631;28;20041;-80
2023/09/02 03:33:00;;;;;;;20.92;14.50;;;;;;;19.65;59.14;95649.78;5017015;28;20030;-79
2023/09/02 03:35:25;;;;;;;18.58;14.93;;;;;;;19.76;59.63;95679.81;5037257;28;20060;-79
2023/09/02 03:37:51;;;;;;;20.73;15.48;;;;;;;19.33;59.88;95623.34;5037896;28;20041;-80
2023/09/02 03:40:18;;;;;;;18.48;15.85;;;;;;;19.77;59.94;95686.00;5038018;28;20048;-79
2023/09/02 03:42:43;;;;;;;20.70;15.15;;;;;;;19.80;59.86;95680.00;5020060;28;20029;-79
2023/09/02 03:45:09;;;;;;;20.42;14.20;;;;;;;19.57;59.62;95642.50;5038588;28;20095;-79
2023/09/02 03:47:35;;;;;;;21.02;15.18;;;;;;;19.43;60.10;95641.06;5039429;28;20164;-80
2023/09/02 03:50:05;;;;;;;25.38;14.90;;;;;;;19.63;60.00;95668.13;5039090;28;20084;-80
2023/09/02 03:52:30;;;;;;;21.45;14.98;;;;;;;19.22;60.69;95646.31;5037292;28;20091;-79
2023/09/02 03:54:56;;;;;;;21.42;15.27;;;;;;;19.56;60.85;95688.56;5037183;28;20041;-79
2023/09/02 03:57:22;;;;;;;20.50;15.02;;;;;;;19.65;60.49;95692.84;5019152;28;20053;-79
2023/09/02 03:59:47;;;;;;;18.08;14.82;;;;;;;19.70;60.32;95693.75;5018647;28;20233;-80
2023/09/02 04:02:13;;;;;;;20.55;14.95;;;;;;;19.50;60.16;95652.19;5018008;28;20056;-78
2023/09/02 04:04:39;;;;;;;25.33;15.10;;;;;;;19.52;60.37;95666.91;5018070;28;20045;-80
2023/09/02 04:07:05;;;;;;;21.52;14.70;;;;;;;19.56;60.33;95665.13;5017816;28;20037;-79
2023/09/02 04:09:30;;;;;;;23.02;15.57;;;;;;;19.45;59.89;95650.41;5036844;28;20064;-86
2023/09/02 04:11:58;;;;;;;18.27;14.90;;;;;;;19.71;59.99;95690.75;5019326;28;20033;-86
2023/09/02 04:14:23;;;;;;;19.17;14.15;;;;;;;19.72;60.06;95686.97;5037453;28;20048;-85
2023/09/02 04:16:49;;;;;;;23.50;16.05;;;;;;;19.88;60.05;95701.50;5036271;28;20481;-86
2023/09/02 04:19:17;;;;;;;34.63;16.35;;;;;;;19.57;59.87;95653.28;5019671;28;20539;-85
2023/09/02 04:21:43;;;;;;;23.38;14.95;;;;;;;19.56;59.81;95646.31;5017631;28;20039;-85
2023/09/02 04:24:08;;;;;;;32.50;17.20;;;;;;;19.88;59.43;95687.25;5018793;28;20556;-85
2023/09/02 04:26:34;;;;;;;24.25;15.43;;;;;;;19.57;59.81;95682.06;5036381;28;20050;-86
2023/09/02 04:29:00;;;;;;;20.40;14.95;;;;;;;19.61;59.72;95683.81;5018130;28;20080;-85
2023/09/02 04:31:26;;;;;;;21.55;15.35;;;;;;;19.17;59.62;95616.88;5036475;28;20457;-86
2023/09/02 04:33:51;;;;;;;22.00;16.40;;;;;;;19.29;59.64;95652.00;5018332;28;20041;-84
2023/09/02 04:36:17;;;;;;;19.35;15.48;;;;;;;19.80;59.55;95710.38;5018502;28;20140;-85
2023/09/02 04:38:42;;;;;;;20.05;15.20;;;;;;;19.76;59.25;95714.03;5017516;28;20187;-85
2023/09/02 04:41:08;;;;;;;21.52;15.95;;;;;;;19.52;59.36;95687.63;5017637;28;20092;-85
2023/09/02 04:43:34;;;;;;;20.75;14.73;;;;;;;19.65;58.97;95690.16;5017027;28;20033;-85
2023/09/02 04:46:02;;;;;;;18.65;14.82;;;;;;;19.79;58.91;95716.88;5018221;28;20520;-85
2023/09/02 04:48:28;;;;;;;19.52;13.75;;;;;;;19.75;58.51;95712.47;5017218;28;20033;-85
2023/09/02 04:50:54;;;;;;;20.70;13.18;;;;;;;19.86;58.32;95711.00;5017663;28;20032;-85
2023/09/02 04:53:20;;;;;;;21.25;13.38;;;;;;;19.71;58.11;95688.06;5017870;28;20488;-85
2023/09/02 04:55:46;;;;;;;21.55;13.63;;;;;;;19.78;57.88;95709.13;5017803;28;20048;-85
2023/09/02 04:58:12;;;;;;;16.30;12.55;;;;;;;19.87;58.09;95728.75;5017663;28;20037;-84
2023/09/02 05:00:38;;;;;;;20.00;13.40;;;;;;;19.65;58.30;95710.88;5035438;28;20025;-86
2023/09/02 05:03:04;;;;;;;16.95;12.45;;;;;;;19.69;58.29;95709.13;5017439;28;20124;-85
2023/09/02 05:05:31;;;;;;;20.85;13.35;;;;;;;19.71;58.29;95708.81;5017275;28;20025;-86
2023/09/02 05:07:57;;;;;;;15.52;12.20;;;;;;;19.75;58.16;95709.75;5035446;28;20033;-85
2023/09/02 05:10:22;;;;;;;19.45;12.20;;;;;;;19.31;58.85;95679.34;5035488;28;20416;-86
2023/09/02 05:12:48;;;;;;;23.42;13.93;;;;;;;19.52;59.03;95715.31;5016821;28;20026;-85
2023/09/02 05:15:13;;;;;;;18.42;13.98;;;;;;;19.65;58.50;95724.31;5017747;28;20526;-85
2023/09/02 05:17:39;;;;;;;17.98;13.75;;;;;;;19.57;58.60;95700.91;5035532;28;20030;-85
2023/09/02 05:20:06;;;;;;;17.17;14.02;;;;;;;19.54;58.67;95706.91;5016969;28;20053;-86
2023/09/02 05:22:31;;;;;;;21.92;16.02;;;;;;;19.42;58.59;95690.59;5017180;28;20500;-85
2023/09/02 05:24:57;;;;;;;18.52;13.80;;;;;;;19.50;58.63;95712.16;5016684;28;20041;-85
2023/09/02 05:27:22;;;;;;;17.77;12.75;;;;;;;19.31;58.92;95703.56;5034314;28;20040;-85
2023/09/02 05:29:48;;;;;;;17.67;13.73;;;;;;;19.15;58.97;95684.41;5016115;28;20037;-85
2023/09/02 05:32:16;;;;;;;17.25;12.80;;;;;;;19.42;59.08;95725.56;5034215;28;20104;-85
2023/09/02 05:34:42;;;;;;;17.92;13.45;;;;;;;19.22;59.31;95708.91;5034873;28;20060;-85
2023/09/02 05:37:08;;;;;;;15.00;12.80;;;;;;;19.33;59.02;95728.25;5016915;28;20116;-85
2023/09/02 05:39:33;;;;;;;19.95;14.00;;;;;;;19.23;59.31;95688.19;5034632;28;20025;-85
2023/09/02 05:41:59;;;;;;;18.58;14.38;;;;;;;19.04;59.01;95663.53;5034203;28;20037;-85
2023/09/02 05:44:24;;;;;;;22.85;14.18;;;;;;;19.29;59.34;95692.34;5015823;28;20667;-85
2023/09/02 05:46:50;;;;;;;16.08;13.35;;;;;;;19.34;59.41;95705.63;5034842;28;20484;-86
2023/09/02 05:49:16;;;;;;;19.98;12.30;;;;;;;19.67;58.75;95738.25;5034700;28;20536;-86
2023/09/02 05:51:41;;;;;;;15.80;12.48;;;;;;;19.49;58.67;95712.47;5016732;28;20025;-85
2023/09/02 05:54:09;;;;;;;18.52;12.45;;;;;;;19.68;58.81;95737.16;5034821;28;20064;-85
2023/09/02 05:56:35;;;;;;;21.83;13.43;;;;;;;19.67;58.66;95729.41;5033571;28;20087;-85
2023/09/02 05:59:02;;;;;;;16.65;12.23;;;;;;;19.87;58.42;95744.88;5034728;28;20033;-85
2023/09/02 06:01:27;;;;;;;15.25;12.23;;;;;;;19.82;58.01;95715.44;5034617;28;20033;-85
2023/09/02 06:03:53;;;;;;;16.67;12.48;;;;;;;19.90;57.88;95726.22;5016341;28;20041;-86
2023/09/02 06:06:18;;;;;;;18.52;12.85;;;;;;;19.91;57.80;95727.00;5015758;28;20041;-86
2023/09/02 06:08:43;;;;;;;16.65;12.27;;;;;;;19.94;57.67;95719.06;5016764;28;20041;-86
2023/09/02 06:11:09;;;;;;;19.05;13.23;;;;;;;19.72;57.75;95688.88;5016018;28;20093;-85
2023/09/02 06:13:34;;;;;;;17.77;13.25;;;;;;;19.82;57.56;95713.56;5016402;28;20029;-86
2023/09/02 06:16:03;;;;;;;22.67;14.50;;;;;;;19.90;57.58;95723.53;5016371;28;20040;-85
2023/09/02 06:18:29;;;;;;;19.60;13.90;;;;;;;19.96;57.77;95724.13;5015231;28;20056;-85
2023/09/02 06:20:55;;;;;;;19.77;14.10;;;;;;;20.23;57.52;95747.19;5015780;28;20090;-84
2023/09/02 06:23:20;;;;;;;21.23;13.68;;;;;;;20.19;57.27;95738.19;5033930;28;19921;-86
2023/09/02 06:25:59;;;;;;;21.60;13.98;;;;;;;20.35;57.23;95752.75;5015661;28;20127;-86
2023/09/02 06:28:26;;;;;;;18.33;13.18;;;;;;;20.37;57.09;95751.31;5033237;28;20036;-85
2023/09/02 06:30:52;;;;;;;18.30;12.80;;;;;;;20.42;57.09;95755.75;5016361;28;20026;-86
2023/09/02 06:33:20;;;;;;;19.45;13.60;;;;;;;20.23;57.51;95725.66;5016761;28;20036;-86
2023/09/02 06:35:45;;;;;;;22.45;14.18;;;;;;;20.37;57.39;95747.81;5035614;28;20030;-86
2023/09/02 06:38:11;;;;;;;22.45;14.15;;;;;;;20.32;57.10;95719.13;5016085;28;20032;-87
2023/09/02 06:40:36;;;;;;;19.30;13.77;;;;;;;20.47;56.76;95739.41;5016485;28;20499;-79
2023/09/02 06:43:02;;;;;;;21.20;14.90;;;;;;;20.33;56.89;95696.50;5015296;28;20035;-79
2023/09/02 06:45:27;;;;;;;20.90;14.07;;;;;;;20.72;56.50;95743.13;5015732;28;20033;-79
2023/09/02 06:47:53;;;;;;;23.17;14.80;;;;;;;20.58;56.13;95712.91;5014864;28;20033;-79
2023/09/02 06:50:18;;;;;;;18.48;13.40;;;;;;;20.19;55.73;95633.97;5015745;28;20025;-78
2023/09/02 06:52:43;;;;;;;21.15;14.55;;;;;;;20.98;55.57;95738.38;5015516;28;20025;-79
2023/09/02 06:55:09;;;;;;;19.58;14.00;;;;;;;20.79;55.50;95714.53;5015787;28;20389;-79
2023/09/02 06:57:34;;;;;;;22.20;13.75;;;;;;;21.10;55.25;95740.38;5033663;28;20182;-78
2023/09/02 07:00:00;;;;;;;21.73;14.68;;;;;;;20.92;55.15;95710.03;5033052;28;20084;-79
2023/09/02 07:02:25;;;;;;;21.42;14.40;;;;;;;21.23;54.91;95739.38;5033095;28;20503;-80
2023/09/02 07:04:51;;;;;;;20.80;13.82;;;;;;;20.98;54.64;95702.56;5032691;28;20060;-79
2023/09/02 07:07:17;;;;;;;20.17;13.05;;;;;;;20.95;54.25;95678.94;5033241;28;20114;-85
2023/09/02 07:09:42;;;;;;;21.15;14.43;;;;;;;21.41;54.24;95734.66;5015797;28;20404;-86
2023/09/02 07:12:08;;;;;;;15.77;12.68;;;;;;;21.52;54.12;95750.13;5033611;28;20033;-85
2023/09/02 07:14:33;;;;;;;22.05;14.02;;;;;;;21.48;53.93;95714.13;5016165;28;20029;-86
2023/09/02 07:16:59;;;;;;;19.88;13.80;;;;;;;21.34;54.12;95716.28;5016397;28;20104;-86
2023/09/02 07:19:24;;;;;;;20.55;13.55;;;;;;;21.12;53.71;95674.22;5016433;28;20337;-87
2023/09/02 07:21:50;;;;;;;21.10;13.60;;;;;;;21.41;53.57;95719.25;5034050;28;20053;-86
2023/09/02 07:24:16;;;;;;;20.95;13.90;;;;;;;21.46;53.36;95708.25;5015577;28;20029;-87
2023/09/02 07:26:41;;;;;;;20.15;13.40;;;;;;;21.63;53.22;95728.13;5034110;28;20029;-85
2023/09/02 07:29:07;;;;;;;19.52;13.48;;;;;;;21.85;53.03;95743.97;5034654;28;20040;-86
2023/09/02 07:31:33;;;;;;;17.48;12.52;;;;;;;21.63;52.97;95711.94;5016571;28;20427;-86
2023/09/02 07:33:58;;;;;;;19.40;13.50;;;;;;;21.60;52.88;95705.28;5015630;28;20091;-86
2023/09/02 07:36:24;;;;;;;20.50;12.48;;;;;;;21.88;52.55;95746.03;5016249;28;20056;-87
2023/09/02 07:38:49;;;;;;;18.30;12.20;;;;;;;21.82;52.93;95744.63;5034126;28;20113;-87
2023/09/02 07:41:15;;;;;;;21.63;12.82;;;;;;;21.64;53.31;95729.72;5014590;28;20030;-86
2023/09/02 07:43:40;;;;;;;16.73;13.50;;;;;;;21.59;53.13;95697.53;5032521;28;20044;-84
2023/09/02 07:46:06;;;;;;;21.95;13.30;;;;;;;21.63;52.81;95717.34;5014064;28;20033;-85
2023/09/02 07:48:31;;;;;;;20.02;12.65;;;;;;;21.75;52.73;95695.78;5032538;28;20040;-85
2023/09/02 07:50:56;;;;;;;18.80;12.15;;;;;;;21.82;52.27;95704.94;5032666;28;20037;-85
2023/09/02 07:53:22;;;;;;;20.33;13.02;;;;;;;21.88;52.70;95733.31;5032142;28;20030;-86
2023/09/02 07:55:47;;;;;;;19.02;13.10;;;;;;;21.88;52.49;95705.53;5032216;28;20112;-85
2023/09/02 07:58:13;;;;;;;23.33;12.68;;;;;;;21.98;52.15;95724.03;5032392;28;20199;-84
2023/09/02 08:00:38;;;;;;;20.25;12.55;;;;;;;21.97;52.06;95705.47;5014577;28;20034;-85
2023/09/02 08:03:04;;;;;;;24.20;13.98;;;;;;;22.21;51.87;95724.44;5032517;28;20048;-85
2023/09/02 08:05:30;;;;;;;21.83;13.13;;;;;;;22.08;51.82;95699.31;5014522;28;20091;-85
2023/09/02 08:07:55;;;;;;;22.80;14.07;;;;;;;22.42;51.50;95738.69;5014951;28;20132;-86
2023/09/02 08:10:21;;;;;;;18.42;12.52;;;;;;;22.61;51.11;95749.75;5014049;28;20087;-85
2023/09/02 08:12:47;;;;;;;18.15;10.98;;;;;;;22.54;50.45;95724.41;5032200;28;20044;-85
2023/09/02 08:15:13;;;;;;;16.80;11.45;;;;;;;22.74;50.16;95739.75;5031988;28;20495;-85
2023/09/02 08:17:41;;;;;;;17.98;10.35;;;;;;;22.76;49.78;95753.72;5031851;28;20424;-83
2023/09/02 08:20:08;;;;;;;15.20;11.70;;;;;;;22.75;49.57;95733.22;5017477;28;20056;-86
2023/09/02 08:22:34;;;;;;;18.38;11.15;;;;;;;22.93;49.89;95744.63;5035644;28;20030;-86
2023/09/02 08:24:59;;;;;;;13.88;8.55;;;;;;;22.94;48.50;95747.00;5017860;28;20033;-85
2023/09/02 08:27:25;;;;;;;21.73;9.20;;;;;;;22.75;48.22;95695.38;5035652;28;20033;-85
2023/09/02 08:29:52;;;;;;;14.43;8.95;;;;;;;23.15;47.97;95746.06;5016862;28;20037;-85
2023/09/02 08:32:17;;;;;;;17.70;8.57;;;;;;;23.05;47.65;95702.13;5016849;28;20504;-85
2023/09/02 08:34:43;;;;;;;17.02;7.45;;;;;;;23.24;47.14;95730.50;5035467;28;20104;-86
2023/09/02 08:37:09;;;;;;;8.65;7.40;;;;;;;23.19;46.97;95714.53;5017678;28;20632;-85
2023/09/02 08:39:34;;;;;;;11.93;6.45;;;;;;;23.30;46.82;95712.91;5035454;28;20033;-86
2023/09/02 08:41:59;;;;;;;8.63;7.22;;;;;;;23.53;46.61;95737.59;5035547;28;20033;-86
2023/09/02 08:44:33;;;;;;;18.80;7.47;;;;;;;23.34;46.58;95690.25;5016751;28;20034;-86
2023/09/02 08:47:01;;;;;;;10.32;7.72;;;;;;;23.58;46.21;95702.13;5034165;28;20531;-84
2023/09/02 08:49:27;;;;;;;9.48;6.53;;;;;;;23.35;46.06;95672.06;5037690;28;20040;-85
2023/09/02 08:51:53;;;;;;;9.98;6.78;;;;;;;23.58;46.04;95680.47;5024527;28;20021;-85
2023/09/02 08:54:21;;;;;;;10.55;7.18;;;;;;;23.64;45.56;95707.00;5038065;28;20033;-86
2023/09/02 08:56:51;;;;;;;15.00;7.25;;;;;;;23.64;45.50;95696.16;5040724;28;20037;-86
2023/09/02 08:59:18;;;;;;;11.32;6.80;;;;;;;23.79;45.45;95706.25;5037232;28;20033;-80
2023/09/02 09:01:45;;;;;;;10.13;6.50;;;;;;;23.84;45.51;95694.38;5035744;28;20040;-79
2023/09/02 09:04:15;;;;;;;9.60;6.75;;;;;;;24.01;45.44;95688.66;5017148;28;20056;-79
2023/09/02 09:06:41;;;;;;;12.18;7.00;;;;;;;24.11;45.17;95698.19;5034859;28;20089;-79
2023/09/02 09:09:11;;;;;;;10.77;6.55;;;;;;;24.09;45.10;95705.91;5017354;28;20029;-79
2023/09/02 09:11:42;;;;;;;12.75;8.10;;;;;;;24.21;45.54;95722.13;5017727;28;20072;-79
2023/09/02 09:14:28;;;;;;;10.45;6.82;;;;;;;24.34;45.78;95707.34;5034573;28;20037;-79
2023/09/02 09:16:55;;;;;;;8.27;6.07;;;;;;;24.46;45.19;95718.13;5016905;28;20121;-79
2023/09/02 09:19:25;;;;;;;7.50;6.65;;;;;;;24.17;44.88;95658.88;5033990;28;20436;-79
2023/09/02 09:21:50;;;;;;;10.40;7.45;;;;;;;24.65;45.03;95712.00;5017507;28;20044;-79
2023/09/02 09:24:16;;;;;;;12.32;6.40;;;;;;;24.64;45.08;95698.81;5017822;28;20132;-79
2023/09/02 09:26:43;;;;;;;10.90;6.43;;;;;;;24.25;44.24;95663.38;5034828;28;20033;-79
2023/09/02 09:29:14;;;;;;;11.32;6.70;;;;;;;24.42;44.20;95671.16;5032688;28;20531;-79
2023/09/02 09:31:39;;;;;;;11.30;6.78;;;;;;;24.30;44.27;95648.78;5034040;28;20475;-80
2023/09/02 09:34:06;;;;;;;11.10;7.07;;;;;;;24.83;43.88;95696.16;5034383;28;20073;-79
2023/09/02 09:36:33;;;;;;;8.05;6.18;;;;;;;24.82;44.58;95683.75;5033775;28;20041;-79
2023/09/02 09:39:04;;;;;;;9.15;6.40;;;;;;;24.88;44.53;95683.13;5034337;28;20042;-79
2023/09/02 09:41:30;;;;;;;8.43;6.90;;;;;;;24.89;43.95;95695.53;5034126;28;20034;-79
2023/09/02 09:44:05;;;;;;;11.38;6.78;;;;;;;24.98;43.96;95688.03;5034460;28;20096;-79
2023/09/02 09:46:34;;;;;;;11.43;7.05;;;;;;;25.10;44.12;95686.38;5033859;28;20129;-79
2023/09/02 09:49:01;;;;;;;12.13;6.82;;;;;;;25.18;44.52;95688.84;5016563;28;20048;-79
2023/09/02 09:51:27;;;;;;;9.75;6.22;;;;;;;25.35;43.60;95682.25;5016260;28;20083;-81
2023/09/02 09:53:53;;;;;;;9.85;6.30;;;;;;;25.41;43.58;95688.19;5016427;28;20576;-80
2023/09/02 09:56:19;;;;;;;8.02;5.72;;;;;;;25.71;43.07;95687.31;5016637;28;20037;-79
2023/09/02 09:58:48;;;;;;;9.85;6.40;;;;;;;26.09;42.27;95658.53;5033775;28;20042;-80
2023/09/02 10:01:24;;;;;;;9.60;6.53;;;;;;;26.95;40.05;95666.22;5035134;28;20037;-87
2023/09/02 10:03:51;;;;;;;6.90;5.90;;;;;;;26.95;40.05;95666.22;5033958;28;20101;-87
2023/09/02 10:06:19;;;;;;;12.63;6.25;;;;;;;28.64;36.73;95648.38;5034307;28;20033;-87
2023/09/02 10:08:52;;;;;;;6.38;5.30;;;;;;;29.72;34.84;95676.00;5017966;28;20099;-86
2023/09/02 10:11:21;;;;;;;6.63;5.45;;;;;;;30.35;33.67;95660.19;5035339;28;20038;-86
2023/09/02 10:13:48;;;;;;;8.35;5.28;;;;;;;30.75;32.48;95662.56;5017302;28;20530;-87
2023/09/02 10:16:14;;;;;;;12.63;5.70;;;;;;;31.21;31.17;95637.09;5017956;28;20525;-87
2023/09/02 10:18:41;;;;;;;6.75;4.63;;;;;;;31.85;31.05;95670.59;5037840;28;20072;-86
2023/09/02 10:21:07;;;;;;;5.85;4.85;;;;;;;32.29;29.81;95641.78;5036195;28;20373;-86
2023/09/02 10:23:34;;;;;;;5.32;4.50;;;;;;;32.76;29.54;95649.31;5036172;28;20034;-86
2023/09/02 10:26:13;;;;;;;4.80;4.22;;;;;;;33.42;27.21;95640.81;5017350;28;20389;-87
2023/09/02 10:28:42;;;;;;;4.90;4.10;;;;;;;33.41;27.06;95622.78;5017649;28;20110;-87
2023/09/02 10:31:42;;;;;;;9.00;4.53;;;;;;;33.86;26.30;95661.19;5018458;28;20051;-86
2023/09/02 10:34:16;;;;;;;5.30;4.00;;;;;;;33.99;26.17;95653.94;5036084;28;20447;-85
2023/09/02 10:36:47;;;;;;;7.78;4.40;;;;;;;33.48;26.33;95624.69;5017871;28;20135;-87
2023/09/02 10:39:54;;;;;;;6.30;4.50;;;;;;;33.94;26.21;95643.38;5035707;28;20061;-87
2023/09/02 10:42:20;;;;;;;5.78;4.18;;;;;;;33.87;25.20;95622.25;5012143;28;20045;-86
2023/09/02 10:44:47;;;;;;;5.05;4.00;;;;;;;33.61;25.23;95629.22;5035139;28;20072;-87
2023/09/02 10:47:13;;;;;;;4.47;4.05;;;;;;;33.87;25.35;95644.25;5018636;28;20116;-86
2023/09/02 10:49:40;;;;;;;5.22;3.97;;;;;;;34.06;25.03;95635.34;5037442;28;20516;-85
2023/09/02 10:52:06;;;;;;;6.05;4.65;;;;;;;34.36;25.18;95645.56;5018429;28;20471;-87
2023/09/02 10:55:03;;;;;;;8.90;4.35;;;;;;;34.54;25.01;95639.78;5034768;28;20095;-86
2023/09/02 10:57:44;;;;;;;4.60;3.80;;;;;;;34.61;24.77;95650.69;5033675;28;20033;-85
2023/09/02 11:00:29;;;;;;;6.32;4.75;;;;;;;34.73;24.95;95635.56;5016901;28;20033;-86
2023/09/02 11:02:58;;;;;;;8.77;5.20;;;;;;;34.95;24.37;95636.75;5016181;28;20069;-87
2023/09/02 11:05:27;;;;;;;10.63;6.90;;;;;;;35.26;23.66;95644.91;5034707;28;20112;-86
2023/09/02 11:07:53;;;;;;;9.25;5.32;;;;;;;35.32;23.06;95634.97;5035040;28;20112;-87
2023/09/02 11:10:19;;;;;;;5.45;4.20;;;;;;;35.52;22.63;95639.28;5032444;28;20076;-78
2023/09/02 11:13:00;;;;;;;6.15;4.38;;;;;;;35.48;21.90;95638.56;5033200;28;20037;-79
2023/09/02 11:15:29;;;;;;;6.43;4.20;;;;;;;35.36;21.65;95630.94;5015712;28;20052;-79
2023/09/02 11:17:55;;;;;;;6.57;3.85;;;;;;;35.32;21.54;95615.66;5015214;28;20072;-79
2023/09/02 11:20:25;;;;;;;4.18;3.65;;;;;;;35.34;22.25;95632.53;5032121;28;20053;-79